Time;durP1;ratioP1;P1;durP2;ratioP2;P2;SDS_P1;SDS_P2;PMS_P1;PMS_P2;Temp;Humidity;BMP_temperature;BMP_pressure;BME280_temperature;BME280_humidity;BME280_pressure;Samples;Min_cycle;Max_cycle;Signal;HPM_P1;HPM_P2
2022/11/08 00:01:30;;;;;;;8.70;1.80;;;13.30;99.90;;;;;;7408298;19;20014;-78
2022/11/08 00:03:07;;;;;;;9.00;1.35;;;13.30;99.90;;;;;;7405700;19;19926;-78
2022/11/08 00:14:00;;;;;;;5.28;1.65;;;13.30;99.90;;;;;;7404397;19;19918;-78
2022/11/08 00:16:30;;;;;;;5.72;1.30;;;13.30;99.90;;;;;;7407751;19;20268;-78
2022/11/08 00:19:02;;;;;;;5.22;0.80;;;13.40;99.90;;;;;;7407950;19;19922;-79
2022/11/08 00:21:31;;;;;;;7.32;1.95;;;13.40;99.90;;;;;;7407922;19;19922;-78
2022/11/08 00:23:59;;;;;;;6.93;1.95;;;13.40;99.90;;;;;;7405474;19;19919;-78
2022/11/08 00:26:29;;;;;;;5.97;1.58;;;13.40;99.90;;;;;;7408433;19;19923;-78
2022/11/08 00:28:58;;;;;;;7.25;1.13;;;13.40;99.90;;;;;;7405641;19;19924;-78
2022/11/08 00:31:26;;;;;;;6.70;1.30;;;13.50;99.90;;;;;;7404668;19;19923;-78
2022/11/08 00:33:56;;;;;;;7.22;1.08;;;13.40;99.90;;;;;;7407503;19;19921;-79
2022/11/08 00:36:28;;;;;;;6.57;2.08;;;13.50;99.90;;;;;;7405376;19;19911;-79
2022/11/08 00:38:57;;;;;;;6.20;1.63;;;13.60;99.90;;;;;;7405629;19;19911;-79
2022/11/08 00:41:25;;;;;;;6.68;2.00;;;13.50;99.90;;;;;;7404162;19;19914;-78
2022/11/08 00:43:54;;;;;;;8.30;1.92;;;13.50;99.90;;;;;;7409962;19;19918;-79
2022/11/08 00:46:24;;;;;;;9.13;1.40;;;13.40;99.90;;;;;;7404355;19;19926;-79
2022/11/08 00:48:52;;;;;;;4.18;1.50;;;13.50;99.90;;;;;;7405002;19;19927;-79
2022/11/08 00:51:21;;;;;;;4.68;0.82;;;13.50;99.90;;;;;;7406241;19;19930;-78
2022/11/08 00:53:53;;;;;;;9.20;1.83;;;13.50;99.90;;;;;;7403824;19;20366;-79
2022/11/08 00:56:22;;;;;;;7.00;1.25;;;13.50;99.90;;;;;;7404490;19;19928;-79
2022/11/08 00:58:50;;;;;;;9.20;2.10;;;13.50;99.90;;;;;;7408402;19;19978;-79
2022/11/08 01:01:22;;;;;;;9.75;0.80;;;13.50;99.90;;;;;;7405232;19;20352;-78
2022/11/08 01:03:51;;;;;;;3.67;1.20;;;13.50;99.90;;;;;;7404427;19;19921;-78
2022/11/08 01:06:22;;;;;;;4.53;0.88;;;13.50;99.90;;;;;;7404946;19;20352;-79
2022/11/08 01:08:54;;;;;;;8.27;2.05;;;13.50;99.90;;;;;;7406887;19;19922;-78
2022/11/08 01:11:24;;;;;;;5.97;0.73;;;13.50;99.90;;;;;;7404320;19;20332;-78
2022/11/08 01:13:54;;;;;;;5.50;0.90;;;13.40;99.90;;;;;;7404024;19;20388;-78
2022/11/08 01:16:25;;;;;;;5.25;1.98;;;13.50;99.90;;;;;;7402821;19;19918;-79
2022/11/08 01:18:57;;;;;;;6.55;0.93;;;13.50;99.90;;;;;;7404296;19;19927;-78
2022/11/08 01:21:27;;;;;;;4.53;1.42;;;13.40;99.90;;;;;;7401498;19;19924;-79
2022/11/08 01:23:58;;;;;;;5.85;0.90;;;13.40;99.90;;;;;;7404333;19;19942;-79
2022/11/08 01:26:30;;;;;;;9.45;1.60;;;13.40;99.90;;;;;;7405701;19;19922;-79
2022/11/08 01:28:59;;;;;;;6.60;1.70;;;13.40;99.90;;;;;;7404038;19;19966;-79
2022/11/08 01:31:31;;;;;;;8.55;1.35;;;13.40;99.90;;;;;;7402236;19;19918;-79
2022/11/08 01:34:01;;;;;;;6.00;0.88;;;13.40;99.90;;;;;;7403233;19;19925;-79
2022/11/08 01:36:30;;;;;;;8.10;1.30;;;13.40;99.90;;;;;;7404799;19;19922;-79
2022/11/08 01:39:02;;;;;;;7.07;0.77;;;13.40;99.90;;;;;;7406494;19;19942;-79
2022/11/08 01:41:31;;;;;;;7.35;1.10;;;13.40;99.90;;;;;;7403658;19;19918;-78
2022/11/08 01:44:00;;;;;;;7.32;1.80;;;13.40;99.90;;;;;;7406591;19;19942;-78
2022/11/08 01:46:36;;;;;;;8.07;1.20;;;13.40;99.90;;;;;;7404482;19;19926;-79
2022/11/08 01:49:18;;;;;;;9.50;1.95;;;13.40;99.90;;;;;;7403310;19;19911;-79
2022/11/08 01:51:54;;;;;;;5.95;0.77;;;13.40;99.90;;;;;;7402887;19;19923;-79
2022/11/08 01:54:30;;;;;;;6.80;1.60;;;13.40;99.90;;;;;;7401599;19;19919;-79
2022/11/08 01:57:03;;;;;;;8.35;1.27;;;13.30;99.90;;;;;;7403235;19;19918;-79
2022/11/08 01:59:34;;;;;;;9.50;0.82;;;13.20;99.90;;;;;;7403229;19;19942;-79
2022/11/08 02:02:03;;;;;;;5.47;1.27;;;13.20;99.90;;;;;;7405598;19;20353;-79
2022/11/08 02:04:32;;;;;;;7.43;1.48;;;13.20;99.90;;;;;;7406075;19;19978;-79
2022/11/08 02:07:02;;;;;;;6.78;1.25;;;13.20;99.90;;;;;;7403057;19;19914;-79
2022/11/08 02:09:36;;;;;;;10.45;1.77;;;13.10;99.90;;;;;;7402636;19;19914;-79
2022/11/08 02:12:05;;;;;;;8.40;1.95;;;13.10;99.90;;;;;;7404933;19;19922;-79
2022/11/08 02:14:34;;;;;;;4.53;0.73;;;13.10;99.90;;;;;;7400863;19;22061;-79
2022/11/08 02:17:03;;;;;;;5.43;1.95;;;13.10;99.90;;;;;;7405187;19;20386;-79
2022/11/08 02:19:39;;;;;;;9.90;2.35;;;13.10;99.90;;;;;;7402177;19;19922;-76
2022/11/08 02:22:17;;;;;;;7.55;1.52;;;13.20;99.90;;;;;;7404545;19;19914;-76
2022/11/08 02:24:49;;;;;;;7.05;1.58;;;13.10;99.90;;;;;;7401472;19;19910;-76
2022/11/08 02:27:18;;;;;;;7.32;2.08;;;13.20;99.90;;;;;;7401174;19;19947;-79
2022/11/08 02:29:47;;;;;;;6.10;1.42;;;13.20;99.90;;;;;;7404631;19;20426;-79
2022/11/08 02:32:16;;;;;;;4.07;0.95;;;13.20;99.90;;;;;;7402762;19;19918;-79
2022/11/08 02:34:48;;;;;;;9.00;1.83;;;13.20;99.90;;;;;;7407104;19;19915;-79
2022/11/08 02:37:20;;;;;;;5.45;1.40;;;13.10;99.90;;;;;;7411370;19;19918;-79
2022/11/08 02:39:52;;;;;;;5.72;1.45;;;13.10;99.90;;;;;;7408368;19;19918;-79
2022/11/08 02:42:22;;;;;;;5.18;0.80;;;13.00;99.90;;;;;;7407545;19;20355;-79
2022/11/08 02:44:51;;;;;;;6.90;1.48;;;13.00;99.90;;;;;;7408120;19;19929;-79
2022/11/08 02:47:20;;;;;;;6.07;1.63;;;13.00;99.90;;;;;;7411424;19;20342;-79
2022/11/08 02:49:49;;;;;;;4.90;1.48;;;13.00;99.90;;;;;;7407830;19;19918;-79
2022/11/08 02:52:18;;;;;;;6.63;1.08;;;13.00;99.90;;;;;;7411208;19;20263;-79
2022/11/08 02:54:47;;;;;;;5.85;1.63;;;13.10;99.90;;;;;;7405884;19;19927;-79
2022/11/08 02:57:21;;;;;;;7.38;1.95;;;13.00;99.90;;;;;;7408695;19;19910;-76
2022/11/08 02:59:50;;;;;;;4.43;1.33;;;13.00;99.90;;;;;;7408750;19;19914;-76
2022/11/08 03:02:18;;;;;;;11.40;1.25;;;12.90;99.90;;;;;;7409322;19;20297;-76
2022/11/08 03:04:47;;;;;;;6.85;0.80;;;12.90;99.90;;;;;;7408169;19;19919;-76
2022/11/08 03:07:16;;;;;;;5.90;0.90;;;12.80;99.90;;;;;;7407781;19;20248;-76
2022/11/08 03:09:45;;;;;;;5.63;1.42;;;12.70;99.90;;;;;;7406881;19;19922;-78
2022/11/08 03:12:14;;;;;;;6.13;1.50;;;12.70;99.90;;;;;;7409585;19;20332;-79
2022/11/08 03:14:45;;;;;;;8.02;1.20;;;12.60;99.90;;;;;;7405952;19;19915;-79
2022/11/08 03:17:14;;;;;;;5.72;1.40;;;12.60;99.90;;;;;;7407329;19;20161;-79
2022/11/08 03:19:43;;;;;;;6.63;1.67;;;12.60;99.90;;;;;;7407791;19;19930;-79
2022/11/08 03:22:12;;;;;;;6.13;1.40;;;12.60;99.90;;;;;;7408351;19;20412;-79
2022/11/08 03:24:41;;;;;;;4.57;1.60;;;12.60;99.90;;;;;;7405564;19;19918;-79
2022/11/08 03:27:12;;;;;;;4.72;1.90;;;12.60;99.90;;;;;;7408593;19;19918;-79
2022/11/08 03:29:41;;;;;;;6.43;1.88;;;12.60;99.90;;;;;;7409443;19;19927;-79
2022/11/08 03:32:13;;;;;;;5.13;1.13;;;12.60;99.90;;;;;;7407268;19;19934;-79
2022/11/08 03:34:42;;;;;;;5.45;0.63;;;12.50;99.90;;;;;;7404396;19;19911;-79
2022/11/08 03:37:12;;;;;;;;;;;12.50;99.90;;;;;;7409115;19;19926;-79
2022/11/08 03:39:41;;;;;;;7.18;1.02;;;12.40;99.90;;;;;;7406956;19;20356;-78
2022/11/08 03:42:09;;;;;;;4.90;1.88;;;12.40;99.90;;;;;;7405726;19;19947;-79
2022/11/08 03:44:38;;;;;;;7.20;1.85;;;12.40;99.90;;;;;;7403686;19;19919;-79
2022/11/08 03:47:07;;;;;;;7.68;1.73;;;12.40;99.90;;;;;;7406598;19;19910;-78
2022/11/08 03:49:39;;;;;;;4.28;0.60;;;12.40;99.90;;;;;;7406899;19;19926;-79
2022/11/08 03:52:08;;;;;;;6.47;1.00;;;12.30;99.90;;;;;;7409162;19;19914;-79
2022/11/08 03:54:36;;;;;;;4.88;1.73;;;12.30;99.90;;;;;;7405546;19;19936;-79
2022/11/08 03:57:05;;;;;;;7.78;1.90;;;12.30;99.90;;;;;;7406207;19;19910;-79
2022/11/08 03:59:34;;;;;;;6.00;0.88;;;12.20;99.90;;;;;;7407880;19;19955;-79
2022/11/08 04:02:03;;;;;;;6.45;1.52;;;12.10;99.90;;;;;;7406455;19;19974;-79
2022/11/08 04:04:32;;;;;;;4.10;1.45;;;12.10;99.90;;;;;;7407697;19;19914;-79
2022/11/08 04:07:03;;;;;;;5.07;0.80;;;12.00;99.90;;;;;;7410635;19;20259;-79
2022/11/08 04:09:32;;;;;;;5.85;2.20;;;12.00;99.90;;;;;;7407828;19;19929;-79
2022/11/08 04:21:17;;;;;;;5.22;1.48;;;11.70;99.90;;;;;;7405715;19;19956;-79
2022/11/08 04:22:57;;;;;;;5.80;1.65;;;11.50;99.90;;;;;;7406229;19;20336;-79
2022/11/08 04:25:26;;;;;;;6.93;1.83;;;11.50;99.90;;;;;;7406804;19;19926;-79
2022/11/08 04:27:55;;;;;;;5.22;1.63;;;11.50;99.90;;;;;;7406092;19;19927;-78
2022/11/08 04:30:24;;;;;;;6.95;1.10;;;11.50;99.90;;;;;;7405805;19;19910;-79
2022/11/08 04:32:53;;;;;;;5.07;0.85;;;11.50;99.90;;;;;;7405582;19;20284;-78
2022/11/08 04:35:22;;;;;;;7.65;2.17;;;11.40;99.90;;;;;;7404948;19;19921;-79
2022/11/08 04:37:51;;;;;;;6.18;1.50;;;11.40;99.90;;;;;;7405772;19;19934;-78
2022/11/08 04:40:23;;;;;;;6.60;1.15;;;11.40;99.90;;;;;;7407248;19;19979;-79
2022/11/08 04:42:52;;;;;;;52.63;4.55;;;11.40;99.90;;;;;;7405629;19;19915;-79
2022/11/08 04:45:21;;;;;;;6.03;1.70;;;11.40;99.90;;;;;;7405438;19;19918;-79
2022/11/08 04:47:50;;;;;;;5.72;0.75;;;11.30;99.90;;;;;;7405061;19;20315;-78
2022/11/08 04:50:19;;;;;;;5.47;1.95;;;11.30;99.90;;;;;;7404578;19;19963;-78
2022/11/08 04:52:53;;;;;;;5.50;0.80;;;11.20;99.90;;;;;;7404979;19;19914;-79
2022/11/08 04:55:25;;;;;;;7.45;1.77;;;11.20;99.90;;;;;;7405725;19;19986;-79
2022/11/08 04:57:58;;;;;;;9.55;0.80;;;11.10;99.90;;;;;;7406969;19;19910;-78
2022/11/08 05:00:27;;;;;;;6.32;2.05;;;11.00;99.90;;;;;;7405201;19;19930;-79
2022/11/08 05:02:56;;;;;;;9.25;2.10;;;11.00;99.90;;;;;;7405030;19;19911;-78
2022/11/08 05:05:25;;;;;;;3.67;1.75;;;10.90;99.90;;;;;;7404569;19;19918;-79
2022/11/08 05:07:55;;;;;;;7.53;2.15;;;10.80;99.90;;;;;;7405031;19;19939;-79
2022/11/08 05:10:27;;;;;;;5.68;1.70;;;10.80;99.90;;;;;;7408251;19;19914;-78
2022/11/08 05:12:58;;;;;;;17.75;1.83;;;10.80;99.90;;;;;;7407376;19;19981;-78
2022/11/08 05:15:27;;;;;;;6.68;1.13;;;10.80;99.90;;;;;;7403195;19;20329;-78
2022/11/08 05:17:56;;;;;;;6.00;1.13;;;10.70;99.90;;;;;;7404182;19;20263;-78
2022/11/08 05:25:50;;;;;;;7.72;2.08;;;10.70;99.90;;;;;;7403533;19;19925;-78
2022/11/08 05:28:19;;;;;;;5.88;1.30;;;10.70;99.90;;;;;;7404157;19;19921;-79
2022/11/08 05:30:54;;;;;;;9.20;2.13;;;10.80;99.90;;;;;;7404201;19;19930;-78
2022/11/08 05:33:23;;;;;;;4.20;0.98;;;10.80;99.90;;;;;;7406039;19;19994;-78
2022/11/08 05:35:52;;;;;;;8.98;2.10;;;10.80;99.90;;;;;;7404182;19;20336;-78
2022/11/08 05:38:22;;;;;;;;;;;10.70;99.90;;;;;;7403883;19;19978;-78
2022/11/08 05:40:53;;;;;;;6.95;1.13;;;10.80;99.90;;;;;;7403785;19;19978;-79
2022/11/08 05:43:22;;;;;;;5.47;1.13;;;10.70;99.90;;;;;;7403817;19;19923;-79
2022/11/08 05:45:51;;;;;;;6.10;2.50;;;10.70;99.90;;;;;;7404027;19;19917;-79
2022/11/08 05:48:20;;;;;;;4.45;1.35;;;10.70;99.90;;;;;;7405248;19;19915;-79
2022/11/08 05:50:50;;;;;;;7.10;2.90;;;10.70;99.90;;;;;;7403410;19;20336;-78
2022/11/08 05:53:19;;;;;;;9.07;2.13;;;10.60;99.90;;;;;;7404052;19;19978;-78
2022/11/08 05:55:48;;;;;;;8.93;1.55;;;10.60;99.90;;;;;;7401398;19;19923;-78
2022/11/08 05:58:19;;;;;;;8.90;1.42;;;10.70;99.90;;;;;;7404549;19;19918;-79
2022/11/08 06:00:48;;;;;;;5.68;1.35;;;10.60;99.90;;;;;;7407511;19;20239;-78
2022/11/08 06:03:17;;;;;;;8.15;1.80;;;10.60;99.90;;;;;;7403038;19;19970;-78
2022/11/08 06:05:46;;;;;;;7.03;2.10;;;10.70;99.90;;;;;;7405619;19;19917;-78
2022/11/08 06:08:15;;;;;;;7.20;1.88;;;10.70;99.90;;;;;;7408426;19;19918;-79
2022/11/08 06:10:43;;;;;;;5.28;1.58;;;10.60;99.90;;;;;;7409693;19;19914;-78
2022/11/08 06:13:12;;;;;;;5.70;2.10;;;10.70;99.90;;;;;;7409486;19;20003;-78
2022/11/08 06:15:45;;;;;;;8.93;2.78;;;10.70;99.90;;;;;;7406424;19;19919;-78
2022/11/08 06:18:13;;;;;;;8.77;2.75;;;10.70;99.90;;;;;;7411472;19;19974;-79
2022/11/08 06:20:42;;;;;;;6.10;1.70;;;10.70;99.90;;;;;;7412227;19;19928;-78
2022/11/08 06:23:11;;;;;;;8.07;2.00;;;10.70;99.90;;;;;;7410324;19;19915;-78
2022/11/08 06:25:40;;;;;;;5.25;1.73;;;10.60;99.90;;;;;;7410045;19;19922;-78
2022/11/08 06:28:09;;;;;;;8.60;2.40;;;10.60;99.90;;;;;;7409924;19;19914;-79
2022/11/08 06:30:38;;;;;;;6.95;2.10;;;10.70;99.90;;;;;;7410715;19;19934;-79
2022/11/08 06:33:09;;;;;;;5.82;2.38;;;10.70;99.90;;;;;;7409322;19;19918;-79
2022/11/08 06:35:38;;;;;;;5.35;1.65;;;10.70;99.90;;;;;;7406581;19;19925;-78
2022/11/08 06:38:07;;;;;;;6.72;2.42;;;10.70;99.90;;;;;;7409641;19;19936;-78
2022/11/08 06:40:38;;;;;;;9.60;3.33;;;10.70;99.90;;;;;;7407938;19;19926;-78
2022/11/08 06:43:07;;;;;;;5.80;2.42;;;10.70;99.90;;;;;;7407856;19;19915;-78
2022/11/08 06:45:39;;;;;;;7.90;3.38;;;10.70;99.90;;;;;;7407895;19;19925;-78
2022/11/08 06:48:11;;;;;;;7.45;2.95;;;10.70;99.90;;;;;;7408308;19;19978;-78
2022/11/08 06:50:40;;;;;;;4.85;1.88;;;10.60;99.90;;;;;;7408684;19;19928;-78
2022/11/08 06:53:12;;;;;;;5.60;3.30;;;10.60;99.90;;;;;;7410581;19;20427;-78
2022/11/08 06:55:41;;;;;;;6.25;3.28;;;10.60;99.90;;;;;;7406557;19;20340;-78
2022/11/08 06:58:12;;;;;;;7.30;1.95;;;10.70;99.90;;;;;;7409575;19;19923;-78
2022/11/08 07:00:41;;;;;;;7.82;1.85;;;10.70;99.90;;;;;;7407885;19;19974;-78
2022/11/08 07:03:13;;;;;;;49.00;5.20;;;10.70;99.90;;;;;;7411488;19;19942;-81
2022/11/08 07:05:42;;;;;;;7.68;2.35;;;10.70;99.90;;;;;;7404953;19;19940;-81
2022/11/08 07:08:11;;;;;;;6.20;1.60;;;10.70;99.90;;;;;;7408884;19;20388;-81
2022/11/08 07:10:40;;;;;;;5.60;1.75;;;10.80;99.90;;;;;;7412133;19;19928;-81
2022/11/08 07:13:13;;;;;;;5.35;1.73;;;10.80;99.90;;;;;;7406136;19;19923;-81
2022/11/08 07:15:44;;;;;;;5.07;1.90;;;10.90;99.90;;;;;;7406074;19;19914;-82
2022/11/08 07:18:17;;;;;;;6.68;2.38;;;11.00;99.90;;;;;;7406862;19;19922;-81
2022/11/08 07:20:46;;;;;;;4.57;1.10;;;11.00;99.90;;;;;;7408022;19;19923;-81
2022/11/08 07:23:15;;;;;;;6.95;1.20;;;11.10;99.90;;;;;;7407164;19;19933;-81
2022/11/08 07:25:44;;;;;;;5.32;1.73;;;11.10;99.90;;;;;;7409920;19;19911;-82
2022/11/08 07:28:17;;;;;;;4.47;1.00;;;11.20;99.90;;;;;;7407500;19;19935;-82
2022/11/08 07:30:47;;;;;;;5.35;1.05;;;11.20;99.90;;;;;;7411080;19;20310;-81
2022/11/08 07:33:18;;;;;;;3.55;1.05;;;11.30;99.90;;;;;;7410846;19;20249;-81
2022/11/08 07:35:50;;;;;;;2.95;1.52;;;11.30;99.90;;;;;;7408716;19;19915;-81
2022/11/08 07:38:19;;;;;;;4.95;0.70;;;11.40;99.90;;;;;;7406732;19;19921;-81
2022/11/08 07:40:50;;;;;;;5.25;0.93;;;11.40;99.90;;;;;;7407298;19;19923;-81
2022/11/08 07:43:19;;;;;;;4.00;1.17;;;11.40;99.90;;;;;;7407136;19;19921;-81
2022/11/08 07:45:48;;;;;;;5.72;1.92;;;11.50;99.90;;;;;;7406647;19;19915;-81
2022/11/08 07:48:19;;;;;;;6.15;1.65;;;11.50;99.90;;;;;;7410010;19;19930;-81
2022/11/08 07:50:48;;;;;;;5.60;1.27;;;11.40;99.90;;;;;;7410054;19;19948;-81
2022/11/08 07:53:17;;;;;;;3.15;1.45;;;11.50;99.90;;;;;;7406519;19;20349;-81
2022/11/08 07:55:47;;;;;;;6.38;0.80;;;11.50;99.90;;;;;;7406582;19;20332;-82
2022/11/08 07:58:17;;;;;;;3.72;0.60;;;11.60;99.90;;;;;;7406727;19;19922;-81
2022/11/08 08:00:48;;;;;;;4.05;1.27;;;11.60;99.90;;;;;;7407555;19;19929;-82
2022/11/08 08:03:20;;;;;;;5.82;0.80;;;11.60;99.90;;;;;;7410438;19;19910;-81
2022/11/08 08:05:54;;;;;;;3.97;0.90;;;11.60;99.90;;;;;;7408190;19;19914;-81
2022/11/08 08:08:23;;;;;;;3.63;0.63;;;11.70;99.90;;;;;;7408892;19;19942;-82
2022/11/08 08:10:53;;;;;;;3.80;0.60;;;11.70;99.90;;;;;;7405904;19;20352;-81
2022/11/08 08:13:21;;;;;;;4.13;0.63;;;11.70;99.90;;;;;;7408052;19;19915;-82
2022/11/08 08:15:50;;;;;;;6.65;1.15;;;11.80;99.90;;;;;;7405320;19;19932;-82
2022/11/08 08:18:22;;;;;;;3.60;0.90;;;11.90;99.90;;;;;;7409171;19;19911;-81
2022/11/08 08:20:51;;;;;;;4.90;1.80;;;12.00;99.90;;;;;;7406433;19;19915;-82
2022/11/08 08:23:20;;;;;;;3.17;1.20;;;11.90;99.90;;;;;;7407029;19;19929;-81
2022/11/08 08:25:48;;;;;;;4.10;1.10;;;12.10;99.90;;;;;;7409352;19;19931;-82
2022/11/08 08:28:17;;;;;;;4.30;1.23;;;12.20;99.90;;;;;;7405486;19;19922;-82
2022/11/08 08:30:46;;;;;;;5.13;0.50;;;12.30;99.90;;;;;;7404610;19;19918;-82
2022/11/08 08:33:17;;;;;;;3.45;1.23;;;12.40;99.90;;;;;;7405836;19;19914;-81
2022/11/08 08:35:49;;;;;;;3.65;1.20;;;12.50;99.90;;;;;;7404662;19;19974;-82
2022/11/08 08:38:18;;;;;;;4.60;0.68;;;12.60;99.90;;;;;;7407124;19;20316;-82
2022/11/08 08:40:47;;;;;;;2.15;0.30;;;12.70;99.90;;;;;;7405273;19;19919;-82
2022/11/08 08:43:16;;;;;;;2.22;0.52;;;13.00;99.90;;;;;;7405379;19;20369;-82
2022/11/08 08:45:45;;;;;;;2.65;0.45;;;13.10;99.90;;;;;;7404942;19;19935;-81
2022/11/08 08:48:14;;;;;;;4.40;0.90;;;13.20;99.90;;;;;;7405293;19;19922;-82
2022/11/08 08:50:43;;;;;;;2.60;0.43;;;13.30;99.90;;;;;;7404899;19;19915;-82
2022/11/08 08:53:15;;;;;;;4.63;0.63;;;13.40;99.90;;;;;;7407397;19;19915;-82
2022/11/08 08:55:44;;;;;;;4.40;0.50;;;13.40;99.90;;;;;;7405933;19;20255;-81
2022/11/08 08:58:13;;;;;;;3.53;1.10;;;13.50;99.90;;;;;;7404740;19;19939;-82
2022/11/08 09:00:42;;;;;;;2.55;1.05;;;13.70;99.90;;;;;;7404654;19;19925;-81
2022/11/08 09:03:12;;;;;;;3.35;0.60;;;13.70;99.90;;;;;;7406720;19;20426;-82
2022/11/08 09:05:45;;;;;;;3.45;0.85;;;13.80;99.90;;;;;;7407382;19;19922;-82
2022/11/08 09:08:16;;;;;;;3.22;0.40;;;13.90;99.90;;;;;;7404509;19;20278;-82
2022/11/08 09:10:53;;;;;;;3.80;1.17;;;14.00;99.90;;;;;;7403589;19;19926;-82
2022/11/08 09:13:22;;;;;;;1.92;0.93;;;14.10;99.90;;;;;;7407704;19;19918;-82
2022/11/08 09:15:51;;;;;;;3.67;1.10;;;14.10;99.90;;;;;;7403569;19;20368;-82
2022/11/08 09:18:21;;;;;;;4.00;0.95;;;14.10;99.90;;;;;;7404314;19;19925;-82
2022/11/08 09:20:50;;;;;;;2.17;0.30;;;14.10;99.90;;;;;;7407769;19;20686;-82
2022/11/08 09:23:22;;;;;;;4.18;0.80;;;14.20;99.90;;;;;;7404245;19;19921;-82
2022/11/08 09:25:50;;;;;;;2.88;0.22;;;14.20;99.90;;;;;;7403061;19;19915;-82
2022/11/08 09:28:19;;;;;;;2.42;0.30;;;14.30;99.90;;;;;;7403906;19;19910;-82
2022/11/08 09:30:48;;;;;;;3.00;0.60;;;14.40;99.90;;;;;;7408242;19;19917;-81
2022/11/08 09:33:17;;;;;;;4.05;0.95;;;14.40;99.90;;;;;;7404493;19;19917;-82
2022/11/08 09:35:47;;;;;;;2.60;0.60;;;14.40;99.90;;;;;;7406463;19;20348;-82
2022/11/08 09:38:16;;;;;;;3.95;1.00;;;14.40;99.90;;;;;;7405176;19;19922;-82
2022/11/08 09:40:54;;;;;;;3.15;0.60;;;14.50;99.90;;;;;;7407962;19;20380;-82
2022/11/08 09:43:45;;;;;;;2.13;0.65;;;14.50;99.90;;;;;;7402511;19;19991;-82
2022/11/08 09:46:22;;;;;;;4.05;0.63;;;14.50;99.90;;;;;;7405078;19;19930;-82
2022/11/08 09:48:54;;;;;;;2.30;0.63;;;14.60;99.90;;;;;;7402211;19;19923;-82
2022/11/08 09:51:25;;;;;;;1.98;0.85;;;14.60;99.90;;;;;;7407157;19;19919;-82
2022/11/08 09:53:56;;;;;;;2.78;1.08;;;14.70;99.90;;;;;;7403255;19;19922;-82
2022/11/08 09:56:31;;;;;;;2.47;1.00;;;14.80;99.90;;;;;;7403649;19;19918;-82
2022/11/08 09:59:04;;;;;;;2.92;1.10;;;14.80;99.90;;;;;;7403862;19;19941;-80
2022/11/08 10:01:36;;;;;;;5.22;0.95;;;14.90;99.90;;;;;;7404451;19;19910;-80
2022/11/08 10:04:09;;;;;;;4.70;0.70;;;14.90;99.90;;;;;;7401801;19;19919;-83
2022/11/08 10:07:04;;;;;;;4.20;0.77;;;15.00;99.90;;;;;;7404635;19;19922;-81
2022/11/08 10:09:48;;;;;;;4.82;1.05;;;15.00;99.90;;;;;;7404617;19;19956;-81
2022/11/08 10:12:27;;;;;;;2.97;1.10;;;15.00;99.90;;;;;;7402326;19;20351;-80
2022/11/08 10:15:13;;;;;;;4.13;0.90;;;15.00;99.90;;;;;;7402164;19;19923;-81
2022/11/08 10:18:11;;;;;;;2.25;0.30;;;15.00;99.90;;;;;;7401377;19;19914;-83
2022/11/08 10:20:50;;;;;;;4.10;1.20;;;15.00;99.90;;;;;;7398139;19;19918;-81
2022/11/08 10:23:23;;;;;;;6.70;1.38;;;15.00;99.90;;;;;;7405318;19;19939;-90
2022/11/08 10:25:56;;;;;;;2.42;0.82;;;15.00;99.90;;;;;;7401894;19;19918;-90
2022/11/08 10:28:32;;;;;;;6.35;0.50;;;15.00;99.90;;;;;;7402842;19;20263;-93
2022/11/08 10:31:02;;;;;;;2.90;0.40;;;15.00;99.90;;;;;;7402657;19;20268;-90
2022/11/08 10:33:36;;;;;;;3.22;0.88;;;15.00;99.90;;;;;;7404593;19;19921;-88
2022/11/08 10:36:09;;;;;;;2.63;0.93;;;15.00;99.90;;;;;;7404875;19;19922;-88
2022/11/08 10:38:43;;;;;;;2.90;0.60;;;15.00;99.90;;;;;;7405556;19;19915;-88
2022/11/08 10:41:17;;;;;;;2.97;0.70;;;15.10;99.90;;;;;;7404075;19;19938;-88
2022/11/08 10:43:55;;;;;;;2.95;0.93;;;15.00;99.90;;;;;;7401819;19;19921;-87
2022/11/08 10:46:38;;;;;;;3.35;0.75;;;15.10;99.90;;;;;;7401968;19;20363;-87
2022/11/08 10:49:29;;;;;;;2.35;1.00;;;15.10;99.90;;;;;;7400409;19;20341;-88
2022/11/08 10:52:00;;;;;;;2.65;0.50;;;15.10;99.90;;;;;;7401503;19;19943;-88
2022/11/08 10:54:50;;;;;;;2.85;0.50;;;15.10;99.90;;;;;;7406870;19;20311;-89
2022/11/08 10:57:24;;;;;;;3.58;1.15;;;15.20;99.90;;;;;;7410225;19;19926;-88
2022/11/08 10:59:57;;;;;;;2.58;0.93;;;15.20;99.90;;;;;;7409287;19;20342;-88
2022/11/08 11:02:29;;;;;;;2.28;1.02;;;15.20;99.90;;;;;;7407702;19;20341;-77
2022/11/08 11:05:25;;;;;;;2.72;0.60;;;15.30;99.90;;;;;;7408197;19;19914;-80
2022/11/08 11:08:14;;;;;;;2.42;1.02;;;15.30;99.90;;;;;;7409491;19;19928;-83
2022/11/08 11:10:44;;;;;;;2.78;1.20;;;15.30;99.90;;;;;;7407932;19;19919;-81
2022/11/08 11:13:15;;;;;;;2.42;0.85;;;15.20;99.90;;;;;;7411291;19;19928;-85
2022/11/08 11:15:51;;;;;;;2.25;0.90;;;15.20;99.90;;;;;;7406427;19;19918;-82
2022/11/08 11:18:26;;;;;;;4.78;1.10;;;15.10;99.90;;;;;;7405708;19;19933;-82
2022/11/08 11:21:04;;;;;;;4.03;1.02;;;15.10;99.90;;;;;;7407586;19;19917;-81
2022/11/08 11:23:45;;;;;;;1.75;0.65;;;15.10;99.90;;;;;;7408123;19;19917;-83
2022/11/08 11:26:30;;;;;;;2.30;0.80;;;15.10;99.90;;;;;;7406857;19;19910;-80
2022/11/08 11:29:15;;;;;;;1.77;0.60;;;15.10;99.90;;;;;;7410115;19;20348;-81
2022/11/08 11:31:49;;;;;;;3.00;0.88;;;15.00;99.90;;;;;;7410404;19;19922;-81
2022/11/08 11:34:52;;;;;;;2.88;0.85;;;15.00;99.90;;;;;;7407346;19;20340;-79
2022/11/08 11:37:29;;;;;;;2.88;0.90;;;14.90;99.90;;;;;;7405792;19;19917;-80
2022/11/08 11:40:07;;;;;;;1.67;0.70;;;14.90;99.90;;;;;;7407161;19;20336;-81
2022/11/08 11:42:46;;;;;;;2.45;0.90;;;14.80;99.90;;;;;;7407130;19;19984;-79
2022/11/08 11:45:20;;;;;;;2.63;1.00;;;14.80;99.90;;;;;;7407799;19;19922;-84
2022/11/08 11:47:53;;;;;;;3.15;0.90;;;14.90;99.90;;;;;;7406770;19;19966;-87
2022/11/08 11:50:35;;;;;;;4.07;1.00;;;15.00;99.90;;;;;;7408172;19;19917;-87
2022/11/08 11:53:07;;;;;;;2.58;0.68;;;15.00;99.90;;;;;;7406681;19;19915;-86
2022/11/08 11:55:52;;;;;;;2.88;0.32;;;15.10;99.90;;;;;;7406264;19;20282;-83
2022/11/08 11:58:37;;;;;;;2.15;0.70;;;15.20;99.90;;;;;;7405370;19;19915;-82
2022/11/08 12:01:15;;;;;;;3.47;1.35;;;15.30;99.90;;;;;;7408617;19;19957;-82
2022/11/08 12:04:25;;;;;;;4.88;1.38;;;15.40;99.90;;;;;;7410448;19;19919;-82
2022/11/08 12:07:01;;;;;;;1.88;1.27;;;15.40;99.90;;;;;;7404473;19;19910;-82
2022/11/08 12:09:43;;;;;;;3.15;0.85;;;15.50;99.90;;;;;;7406866;19;20256;-83
2022/11/08 12:12:24;;;;;;;2.63;1.27;;;15.50;99.90;;;;;;7407254;19;19914;-85
2022/11/08 12:15:02;;;;;;;3.95;1.30;;;15.50;99.90;;;;;;7401766;19;19949;-79
2022/11/08 12:17:56;;;;;;;2.85;0.40;;;15.60;99.90;;;;;;7399206;19;20199;-79
2022/11/08 12:20:48;;;;;;;2.75;1.20;;;15.60;99.90;;;;;;7408993;19;19915;-80
2022/11/08 12:23:34;;;;;;;5.68;0.60;;;15.50;99.90;;;;;;7410042;19;19929;-79
2022/11/08 12:26:11;;;;;;;2.25;1.17;;;15.60;99.90;;;;;;7406455;19;19910;-79
2022/11/08 12:28:49;;;;;;;3.38;1.10;;;15.50;99.90;;;;;;7405909;19;19915;-79
2022/11/08 12:31:27;;;;;;;6.72;1.35;;;15.60;99.90;;;;;;7405516;19;19925;-79
2022/11/08 12:34:11;;;;;;;2.67;1.13;;;15.50;99.90;;;;;;7405773;19;20071;-79
2022/11/08 12:36:49;;;;;;;4.25;1.48;;;15.50;99.90;;;;;;7407686;19;19927;-79
2022/11/08 12:39:28;;;;;;;5.20;1.00;;;15.60;99.90;;;;;;7405552;19;20363;-80
2022/11/08 12:42:16;;;;;;;2.75;0.40;;;15.60;99.90;;;;;;7405540;19;19918;-79
2022/11/08 12:45:12;;;;;;;3.50;0.95;;;15.60;99.90;;;;;;7405021;19;19926;-79
2022/11/08 12:47:47;;;;;;;2.55;1.00;;;15.70;99.90;;;;;;7403068;19;19915;-79
2022/11/08 12:50:25;;;;;;;2.50;0.50;;;15.80;99.90;;;;;;7404208;19;20312;-79
2022/11/08 12:53:15;;;;;;;2.20;0.82;;;15.80;99.90;;;;;;7408113;19;19919;-79
2022/11/08 12:55:48;;;;;;;3.78;1.33;;;15.80;99.90;;;;;;7406303;19;19915;-79
2022/11/08 12:58:34;;;;;;;4.22;1.05;;;15.80;99.90;;;;;;7407266;19;19918;-79
2022/11/08 13:01:07;;;;;;;3.67;0.82;;;15.80;99.90;;;;;;7405143;19;19914;-79
2022/11/08 13:04:03;;;;;;;3.15;0.75;;;15.80;99.90;;;;;;7405353;19;19911;-79
2022/11/08 13:06:37;;;;;;;4.38;1.70;;;15.80;99.90;;;;;;7400904;19;20024;-78
2022/11/08 13:09:17;;;;;;;192.60;13.25;;;15.70;99.90;;;;;;7403624;19;20420;-86
2022/11/08 13:11:51;;;;;;;6.30;1.50;;;15.70;99.90;;;;;;7397808;19;20023;-76
2022/11/08 13:14:21;;;;;;;4.57;1.30;;;15.70;99.90;;;;;;7404639;19;19938;-77
2022/11/08 13:17:25;;;;;;;2.50;1.23;;;15.70;99.90;;;;;;7403031;19;19915;-77
2022/11/08 13:20:26;;;;;;;7.43;1.08;;;15.60;99.90;;;;;;7404254;19;19947;-76
2022/11/08 13:23:08;;;;;;;5.05;1.10;;;15.70;99.90;;;;;;7404790;19;19911;-77
2022/11/08 13:25:44;;;;;;;3.65;0.60;;;15.80;99.90;;;;;;7404940;19;20436;-77
2022/11/08 13:28:38;;;;;;;6.15;0.98;;;15.80;99.90;;;;;;7408142;19;19915;-77
2022/11/08 13:31:43;;;;;;;2.45;0.50;;;15.80;99.90;;;;;;7406204;19;20313;-77
2022/11/08 13:34:39;;;;;;;1.90;0.40;;;15.80;99.90;;;;;;7404062;19;19914;-77
2022/11/08 13:37:38;;;;;;;4.28;0.98;;;15.80;99.90;;;;;;7403764;19;19947;-77
2022/11/08 13:40:28;;;;;;;4.55;1.13;;;15.80;99.90;;;;;;7403935;19;19921;-77